sensor_id;sensor_type;location;lat;lon;timestamp;P1;durP1;ratioP1;P2;durP2;ratioP2
5616;SDS011;2830;50.656;7.568;2022-10-16T00:02:22;17.50;;;4.10;;
5616;SDS011;2830;50.656;7.568;2022-10-16T00:04:48;16.67;;;3.37;;
5616;SDS011;2830;50.656;7.568;2022-10-16T00:07:15;13.40;;;4.53;;
5616;SDS011;2830;50.656;7.568;2022-10-16T00:09:42;16.00;;;3.90;;
5616;SDS011;2830;50.656;7.568;2022-10-16T00:12:08;11.77;;;3.90;;
5616;SDS011;2830;50.656;7.568;2022-10-16T00:14:35;10.83;;;2.83;;
5616;SDS011;2830;50.656;7.568;2022-10-16T00:17:01;11.10;;;3.00;;
5616;SDS011;2830;50.656;7.568;2022-10-16T00:19:28;11.30;;;3.60;;
5616;SDS011;2830;50.656;7.568;2022-10-16T00:21:55;11.30;;;3.50;;
5616;SDS011;2830;50.656;7.568;2022-10-16T00:24:21;10.13;;;3.40;;
5616;SDS011;2830;50.656;7.568;2022-10-16T00:26:49;17.73;;;3.80;;
5616;SDS011;2830;50.656;7.568;2022-10-16T00:29:16;19.27;;;4.03;;
5616;SDS011;2830;50.656;7.568;2022-10-16T00:31:42;12.23;;;4.17;;
5616;SDS011;2830;50.656;7.568;2022-10-16T00:34:09;12.67;;;3.50;;
5616;SDS011;2830;50.656;7.568;2022-10-16T00:36:36;13.77;;;4.57;;
5616;SDS011;2830;50.656;7.568;2022-10-16T00:39:02;15.17;;;4.20;;
5616;SDS011;2830;50.656;7.568;2022-10-16T00:41:29;14.53;;;3.80;;
5616;SDS011;2830;50.656;7.568;2022-10-16T00:43:58;14.70;;;5.13;;
5616;SDS011;2830;50.656;7.568;2022-10-16T00:46:31;13.47;;;3.50;;
5616;SDS011;2830;50.656;7.568;2022-10-16T00:49:10;16.57;;;4.00;;
5616;SDS011;2830;50.656;7.568;2022-10-16T00:51:47;14.70;;;3.77;;
5616;SDS011;2830;50.656;7.568;2022-10-16T00:54:16;15.93;;;4.20;;
5616;SDS011;2830;50.656;7.568;2022-10-16T00:56:47;14.93;;;4.23;;
5616;SDS011;2830;50.656;7.568;2022-10-16T00:59:15;13.50;;;3.53;;
5616;SDS011;2830;50.656;7.568;2022-10-16T01:01:45;19.00;;;3.90;;
5616;SDS011;2830;50.656;7.568;2022-10-16T01:04:12;15.70;;;3.73;;
5616;SDS011;2830;50.656;7.568;2022-10-16T01:06:43;12.60;;;3.53;;
5616;SDS011;2830;50.656;7.568;2022-10-16T01:09:17;10.30;;;3.40;;
5616;SDS011;2830;50.656;7.568;2022-10-16T01:12:06;15.20;;;3.47;;
5616;SDS011;2830;50.656;7.568;2022-10-16T01:14:40;12.33;;;3.53;;
5616;SDS011;2830;50.656;7.568;2022-10-16T01:17:18;16.10;;;3.83;;
5616;SDS011;2830;50.656;7.568;2022-10-16T01:19:57;11.90;;;3.67;;
5616;SDS011;2830;50.656;7.568;2022-10-16T01:26:18;11.70;;;3.07;;
5616;SDS011;2830;50.656;7.568;2022-10-16T01:31:44;16.23;;;3.40;;
5616;SDS011;2830;50.656;7.568;2022-10-16T01:34:15;16.33;;;4.37;;
5616;SDS011;2830;50.656;7.568;2022-10-16T01:36:51;13.90;;;3.30;;
5616;SDS011;2830;50.656;7.568;2022-10-16T01:39:24;11.60;;;3.75;;
5616;SDS011;2830;50.656;7.568;2022-10-16T01:41:55;13.33;;;4.00;;
5616;SDS011;2830;50.656;7.568;2022-10-16T01:44:31;11.50;;;3.83;;
5616;SDS011;2830;50.656;7.568;2022-10-16T01:46:59;10.10;;;3.20;;
5616;SDS011;2830;50.656;7.568;2022-10-16T01:49:32;15.80;;;3.80;;
5616;SDS011;2830;50.656;7.568;2022-10-16T01:52:02;10.60;;;4.00;;
5616;SDS011;2830;50.656;7.568;2022-10-16T01:54:34;17.10;;;4.40;;
5616;SDS011;2830;50.656;7.568;2022-10-16T01:57:04;10.48;;;3.60;;
5616;SDS011;2830;50.656;7.568;2022-10-16T01:59:35;15.20;;;3.07;;
5616;SDS011;2830;50.656;7.568;2022-10-16T02:02:06;18.37;;;3.87;;
5616;SDS011;2830;50.656;7.568;2022-10-16T02:07:24;10.87;;;3.90;;
5616;SDS011;2830;50.656;7.568;2022-10-16T02:09:51;17.53;;;4.40;;
5616;SDS011;2830;50.656;7.568;2022-10-16T02:14:52;12.27;;;3.90;;
5616;SDS011;2830;50.656;7.568;2022-10-16T02:17:19;14.57;;;3.97;;
5616;SDS011;2830;50.656;7.568;2022-10-16T02:19:47;12.70;;;3.43;;
5616;SDS011;2830;50.656;7.568;2022-10-16T02:22:36;14.25;;;4.13;;
5616;SDS011;2830;50.656;7.568;2022-10-16T02:25:10;13.43;;;4.53;;
5616;SDS011;2830;50.656;7.568;2022-10-16T02:32:53;12.63;;;3.78;;
5616;SDS011;2830;50.656;7.568;2022-10-16T02:35:22;14.20;;;3.60;;
5616;SDS011;2830;50.656;7.568;2022-10-16T02:37:50;10.93;;;3.90;;
5616;SDS011;2830;50.656;7.568;2022-10-16T02:40:18;15.40;;;3.67;;
5616;SDS011;2830;50.656;7.568;2022-10-16T02:42:51;19.30;;;4.30;;
5616;SDS011;2830;50.656;7.568;2022-10-16T02:45:18;13.90;;;4.00;;
5616;SDS011;2830;50.656;7.568;2022-10-16T02:47:45;12.20;;;3.77;;
5616;SDS011;2830;50.656;7.568;2022-10-16T02:50:12;11.10;;;3.47;;
5616;SDS011;2830;50.656;7.568;2022-10-16T02:52:39;27.23;;;4.00;;
5616;SDS011;2830;50.656;7.568;2022-10-16T02:55:06;14.15;;;3.97;;
5616;SDS011;2830;50.656;7.568;2022-10-16T02:57:33;14.00;;;3.70;;
5616;SDS011;2830;50.656;7.568;2022-10-16T03:00:04;16.83;;;4.10;;
5616;SDS011;2830;50.656;7.568;2022-10-16T03:02:31;14.40;;;3.57;;
5616;SDS011;2830;50.656;7.568;2022-10-16T03:04:58;10.10;;;3.30;;
5616;SDS011;2830;50.656;7.568;2022-10-16T03:07:25;13.10;;;3.60;;
5616;SDS011;2830;50.656;7.568;2022-10-16T03:09:52;17.37;;;3.60;;
5616;SDS011;2830;50.656;7.568;2022-10-16T03:12:18;10.43;;;3.43;;
5616;SDS011;2830;50.656;7.568;2022-10-16T03:14:45;10.73;;;3.40;;
5616;SDS011;2830;50.656;7.568;2022-10-16T03:17:12;11.50;;;3.40;;
5616;SDS011;2830;50.656;7.568;2022-10-16T03:19:39;12.00;;;3.60;;
5616;SDS011;2830;50.656;7.568;2022-10-16T03:22:05;11.03;;;3.77;;
5616;SDS011;2830;50.656;7.568;2022-10-16T03:24:32;11.40;;;4.13;;
5616;SDS011;2830;50.656;7.568;2022-10-16T03:26:59;13.00;;;3.30;;
5616;SDS011;2830;50.656;7.568;2022-10-16T03:29:26;12.23;;;3.40;;
5616;SDS011;2830;50.656;7.568;2022-10-16T03:31:53;12.87;;;2.80;;
5616;SDS011;2830;50.656;7.568;2022-10-16T03:34:20;10.40;;;3.50;;
5616;SDS011;2830;50.656;7.568;2022-10-16T03:36:47;14.73;;;3.73;;
5616;SDS011;2830;50.656;7.568;2022-10-16T03:39:13;17.50;;;3.30;;
5616;SDS011;2830;50.656;7.568;2022-10-16T03:41:40;13.73;;;3.47;;
5616;SDS011;2830;50.656;7.568;2022-10-16T03:44:07;19.77;;;3.70;;
5616;SDS011;2830;50.656;7.568;2022-10-16T03:46:33;15.23;;;4.07;;
5616;SDS011;2830;50.656;7.568;2022-10-16T03:49:00;15.20;;;3.77;;
5616;SDS011;2830;50.656;7.568;2022-10-16T03:51:32;10.90;;;3.37;;
5616;SDS011;2830;50.656;7.568;2022-10-16T03:53:59;11.70;;;3.17;;
5616;SDS011;2830;50.656;7.568;2022-10-16T03:56:25;11.05;;;2.88;;
5616;SDS011;2830;50.656;7.568;2022-10-16T03:58:52;12.77;;;3.80;;
5616;SDS011;2830;50.656;7.568;2022-10-16T04:01:19;10.00;;;2.80;;
5616;SDS011;2830;50.656;7.568;2022-10-16T04:03:45;10.53;;;2.90;;
5616;SDS011;2830;50.656;7.568;2022-10-16T04:06:12;11.90;;;2.87;;
5616;SDS011;2830;50.656;7.568;2022-10-16T04:08:39;15.23;;;3.43;;
5616;SDS011;2830;50.656;7.568;2022-10-16T04:11:09;12.63;;;3.92;;
5616;SDS011;2830;50.656;7.568;2022-10-16T04:13:36;12.60;;;3.23;;
5616;SDS011;2830;50.656;7.568;2022-10-16T04:16:02;11.47;;;3.70;;
5616;SDS011;2830;50.656;7.568;2022-10-16T04:18:29;16.30;;;4.67;;
5616;SDS011;2830;50.656;7.568;2022-10-16T04:20:56;12.60;;;4.80;;
5616;SDS011;2830;50.656;7.568;2022-10-16T04:23:22;10.80;;;4.23;;
5616;SDS011;2830;50.656;7.568;2022-10-16T04:25:49;10.87;;;4.53;;
5616;SDS011;2830;50.656;7.568;2022-10-16T04:28:17;12.77;;;4.37;;
5616;SDS011;2830;50.656;7.568;2022-10-16T04:30:43;12.83;;;5.10;;
5616;SDS011;2830;50.656;7.568;2022-10-16T04:33:10;16.57;;;4.73;;
5616;SDS011;2830;50.656;7.568;2022-10-16T04:35:37;13.63;;;5.30;;
5616;SDS011;2830;50.656;7.568;2022-10-16T04:38:03;14.40;;;5.78;;
5616;SDS011;2830;50.656;7.568;2022-10-16T04:40:30;13.17;;;4.80;;
5616;SDS011;2830;50.656;7.568;2022-10-16T04:43:02;11.90;;;4.63;;
5616;SDS011;2830;50.656;7.568;2022-10-16T04:45:29;11.37;;;4.60;;
5616;SDS011;2830;50.656;7.568;2022-10-16T04:47:57;18.70;;;4.70;;
5616;SDS011;2830;50.656;7.568;2022-10-16T04:50:24;17.70;;;5.57;;
5616;SDS011;2830;50.656;7.568;2022-10-16T04:52:51;13.07;;;4.83;;
5616;SDS011;2830;50.656;7.568;2022-10-16T04:55:18;12.07;;;4.10;;
5616;SDS011;2830;50.656;7.568;2022-10-16T04:57:44;20.13;;;5.67;;
5616;SDS011;2830;50.656;7.568;2022-10-16T05:00:11;12.63;;;4.97;;
5616;SDS011;2830;50.656;7.568;2022-10-16T05:02:38;14.80;;;5.60;;
5616;SDS011;2830;50.656;7.568;2022-10-16T05:05:05;12.43;;;4.90;;
5616;SDS011;2830;50.656;7.568;2022-10-16T05:07:33;16.30;;;4.95;;
5616;SDS011;2830;50.656;7.568;2022-10-16T05:09:59;12.57;;;3.53;;
5616;SDS011;2830;50.656;7.568;2022-10-16T05:12:26;15.10;;;3.50;;
5616;SDS011;2830;50.656;7.568;2022-10-16T05:14:52;11.02;;;3.65;;
5616;SDS011;2830;50.656;7.568;2022-10-16T05:17:24;11.05;;;3.95;;
5616;SDS011;2830;50.656;7.568;2022-10-16T05:19:52;11.97;;;2.70;;
5616;SDS011;2830;50.656;7.568;2022-10-16T05:22:19;12.07;;;3.60;;
5616;SDS011;2830;50.656;7.568;2022-10-16T05:24:45;20.77;;;8.13;;
5616;SDS011;2830;50.656;7.568;2022-10-16T05:27:12;14.10;;;3.90;;
5616;SDS011;2830;50.656;7.568;2022-10-16T05:29:48;16.13;;;7.33;;
5616;SDS011;2830;50.656;7.568;2022-10-16T05:32:15;11.10;;;3.60;;
5616;SDS011;2830;50.656;7.568;2022-10-16T05:34:43;11.97;;;4.20;;
5616;SDS011;2830;50.656;7.568;2022-10-16T05:37:10;9.00;;;2.60;;
5616;SDS011;2830;50.656;7.568;2022-10-16T05:39:38;10.50;;;3.30;;
5616;SDS011;2830;50.656;7.568;2022-10-16T05:42:05;15.05;;;3.63;;
5616;SDS011;2830;50.656;7.568;2022-10-16T05:44:31;8.70;;;2.00;;
5616;SDS011;2830;50.656;7.568;2022-10-16T05:47:03;12.87;;;2.90;;
5616;SDS011;2830;50.656;7.568;2022-10-16T05:49:30;10.07;;;2.97;;
5616;SDS011;2830;50.656;7.568;2022-10-16T05:51:57;15.23;;;3.07;;
5616;SDS011;2830;50.656;7.568;2022-10-16T05:54:23;13.03;;;2.90;;
5616;SDS011;2830;50.656;7.568;2022-10-16T05:56:50;9.83;;;3.07;;
5616;SDS011;2830;50.656;7.568;2022-10-16T05:59:17;9.50;;;2.20;;
5616;SDS011;2830;50.656;7.568;2022-10-16T06:01:43;10.77;;;1.97;;
5616;SDS011;2830;50.656;7.568;2022-10-16T06:04:10;11.43;;;2.10;;
5616;SDS011;2830;50.656;7.568;2022-10-16T06:06:44;10.47;;;1.90;;
5616;SDS011;2830;50.656;7.568;2022-10-16T06:09:11;9.00;;;1.50;;
5616;SDS011;2830;50.656;7.568;2022-10-16T06:11:38;9.90;;;2.08;;
5616;SDS011;2830;50.656;7.568;2022-10-16T06:14:04;9.30;;;2.17;;
5616;SDS011;2830;50.656;7.568;2022-10-16T06:16:34;9.30;;;1.70;;
5616;SDS011;2830;50.656;7.568;2022-10-16T06:19:02;8.93;;;1.70;;
5616;SDS011;2830;50.656;7.568;2022-10-16T06:21:33;9.63;;;1.33;;
5616;SDS011;2830;50.656;7.568;2022-10-16T06:24:00;10.20;;;3.20;;
5616;SDS011;2830;50.656;7.568;2022-10-16T06:26:27;10.90;;;3.83;;
5616;SDS011;2830;50.656;7.568;2022-10-16T06:28:56;9.53;;;1.87;;
5616;SDS011;2830;50.656;7.568;2022-10-16T06:31:24;9.97;;;1.60;;
5616;SDS011;2830;50.656;7.568;2022-10-16T06:33:56;9.17;;;1.30;;
5616;SDS011;2830;50.656;7.568;2022-10-16T06:36:24;9.48;;;1.35;;
5616;SDS011;2830;50.656;7.568;2022-10-16T06:38:51;12.03;;;1.47;;
5616;SDS011;2830;50.656;7.568;2022-10-16T06:41:19;9.37;;;1.20;;
5616;SDS011;2830;50.656;7.568;2022-10-16T06:43:48;11.50;;;1.20;;
5616;SDS011;2830;50.656;7.568;2022-10-16T06:46:15;17.95;;;1.50;;
5616;SDS011;2830;50.656;7.568;2022-10-16T06:48:44;10.38;;;1.30;;
5616;SDS011;2830;50.656;7.568;2022-10-16T06:51:12;8.60;;;1.50;;
5616;SDS011;2830;50.656;7.568;2022-10-16T06:53:44;10.70;;;1.60;;
5616;SDS011;2830;50.656;7.568;2022-10-16T06:56:29;8.95;;;1.13;;
5616;SDS011;2830;50.656;7.568;2022-10-16T06:58:57;8.90;;;1.07;;
5616;SDS011;2830;50.656;7.568;2022-10-16T07:01:28;9.07;;;1.10;;
5616;SDS011;2830;50.656;7.568;2022-10-16T07:03:55;8.30;;;1.60;;
5616;SDS011;2830;50.656;7.568;2022-10-16T07:06:25;8.87;;;1.40;;
5616;SDS011;2830;50.656;7.568;2022-10-16T07:08:52;9.17;;;1.30;;
5616;SDS011;2830;50.656;7.568;2022-10-16T07:11:20;8.23;;;1.20;;
5616;SDS011;2830;50.656;7.568;2022-10-16T07:13:48;9.60;;;1.50;;
5616;SDS011;2830;50.656;7.568;2022-10-16T07:16:22;12.23;;;1.30;;
5616;SDS011;2830;50.656;7.568;2022-10-16T07:18:50;7.60;;;1.00;;
5616;SDS011;2830;50.656;7.568;2022-10-16T07:21:23;8.93;;;1.13;;
5616;SDS011;2830;50.656;7.568;2022-10-16T07:23:56;9.82;;;1.20;;
5616;SDS011;2830;50.656;7.568;2022-10-16T07:26:25;8.07;;;1.27;;
5616;SDS011;2830;50.656;7.568;2022-10-16T07:28:52;10.73;;;1.90;;
5616;SDS011;2830;50.656;7.568;2022-10-16T07:31:19;8.17;;;1.10;;
5616;SDS011;2830;50.656;7.568;2022-10-16T07:33:47;7.47;;;0.90;;
5616;SDS011;2830;50.656;7.568;2022-10-16T07:36:15;8.30;;;1.60;;
5616;SDS011;2830;50.656;7.568;2022-10-16T07:38:44;9.40;;;1.93;;
5616;SDS011;2830;50.656;7.568;2022-10-16T07:41:12;10.80;;;1.50;;
5616;SDS011;2830;50.656;7.568;2022-10-16T07:43:40;10.30;;;1.20;;
5616;SDS011;2830;50.656;7.568;2022-10-16T07:46:12;9.13;;;1.10;;
5616;SDS011;2830;50.656;7.568;2022-10-16T07:48:39;8.47;;;1.30;;
5616;SDS011;2830;50.656;7.568;2022-10-16T07:51:06;8.90;;;1.40;;
5616;SDS011;2830;50.656;7.568;2022-10-16T07:53:33;8.47;;;0.87;;
5616;SDS011;2830;50.656;7.568;2022-10-16T07:56:01;9.77;;;1.27;;
5616;SDS011;2830;50.656;7.568;2022-10-16T07:58:30;17.00;;;2.30;;
5616;SDS011;2830;50.656;7.568;2022-10-16T08:00:57;11.90;;;2.70;;
5616;SDS011;2830;50.656;7.568;2022-10-16T08:03:24;11.25;;;1.95;;
5616;SDS011;2830;50.656;7.568;2022-10-16T08:05:51;11.83;;;1.53;;
5616;SDS011;2830;50.656;7.568;2022-10-16T08:08:18;8.48;;;1.33;;
5616;SDS011;2830;50.656;7.568;2022-10-16T08:10:45;11.87;;;4.50;;
5616;SDS011;2830;50.656;7.568;2022-10-16T08:13:12;9.88;;;2.40;;
5616;SDS011;2830;50.656;7.568;2022-10-16T08:15:42;11.53;;;3.40;;
5616;SDS011;2830;50.656;7.568;2022-10-16T08:18:09;9.00;;;1.20;;
5616;SDS011;2830;50.656;7.568;2022-10-16T08:20:38;8.43;;;1.07;;
5616;SDS011;2830;50.656;7.568;2022-10-16T08:23:05;9.83;;;1.30;;
5616;SDS011;2830;50.656;7.568;2022-10-16T08:25:36;8.40;;;1.17;;
5616;SDS011;2830;50.656;7.568;2022-10-16T08:28:07;9.10;;;1.17;;
5616;SDS011;2830;50.656;7.568;2022-10-16T08:30:35;10.10;;;1.53;;
5616;SDS011;2830;50.656;7.568;2022-10-16T08:33:02;9.90;;;1.40;;
5616;SDS011;2830;50.656;7.568;2022-10-16T08:35:29;10.23;;;1.30;;
5616;SDS011;2830;50.656;7.568;2022-10-16T08:37:56;10.83;;;2.70;;
5616;SDS011;2830;50.656;7.568;2022-10-16T08:40:24;9.32;;;1.00;;
5616;SDS011;2830;50.656;7.568;2022-10-16T08:42:56;11.63;;;0.90;;
5616;SDS011;2830;50.656;7.568;2022-10-16T08:48:50;8.40;;;0.93;;
5616;SDS011;2830;50.656;7.568;2022-10-16T08:57:12;8.40;;;1.07;;
5616;SDS011;2830;50.656;7.568;2022-10-16T08:59:48;9.83;;;1.20;;
5616;SDS011;2830;50.656;7.568;2022-10-16T09:02:26;9.13;;;1.08;;
5616;SDS011;2830;50.656;7.568;2022-10-16T09:05:30;9.00;;;0.90;;
5616;SDS011;2830;50.656;7.568;2022-10-16T09:08:34;10.07;;;1.23;;
5616;SDS011;2830;50.656;7.568;2022-10-16T09:11:33;8.57;;;1.05;;
5616;SDS011;2830;50.656;7.568;2022-10-16T09:20:06;14.00;;;1.20;;
5616;SDS011;2830;50.656;7.568;2022-10-16T09:22:38;8.57;;;0.90;;
5616;SDS011;2830;50.656;7.568;2022-10-16T09:25:14;12.80;;;1.10;;
5616;SDS011;2830;50.656;7.568;2022-10-16T09:27:47;7.97;;;0.93;;
5616;SDS011;2830;50.656;7.568;2022-10-16T09:30:18;10.07;;;1.10;;
5616;SDS011;2830;50.656;7.568;2022-10-16T09:32:47;8.20;;;1.13;;
5616;SDS011;2830;50.656;7.568;2022-10-16T09:35:17;8.57;;;1.00;;
5616;SDS011;2830;50.656;7.568;2022-10-16T09:37:50;8.27;;;0.83;;
5616;SDS011;2830;50.656;7.568;2022-10-16T09:40:28;8.00;;;0.90;;
5616;SDS011;2830;50.656;7.568;2022-10-16T09:43:16;8.37;;;0.90;;
5616;SDS011;2830;50.656;7.568;2022-10-16T09:45:54;9.00;;;1.63;;
5616;SDS011;2830;50.656;7.568;2022-10-16T09:48:31;7.90;;;1.30;;
5616;SDS011;2830;50.656;7.568;2022-10-16T09:51:19;8.23;;;1.53;;
5616;SDS011;2830;50.656;7.568;2022-10-16T09:53:59;9.47;;;1.97;;
5616;SDS011;2830;50.656;7.568;2022-10-16T09:56:28;21.57;;;9.50;;
5616;SDS011;2830;50.656;7.568;2022-10-16T09:58:59;7.90;;;0.90;;
5616;SDS011;2830;50.656;7.568;2022-10-16T10:01:30;15.80;;;5.90;;
5616;SDS011;2830;50.656;7.568;2022-10-16T10:04:03;9.93;;;1.73;;
5616;SDS011;2830;50.656;7.568;2022-10-16T10:06:32;9.73;;;2.40;;
5616;SDS011;2830;50.656;7.568;2022-10-16T10:09:05;10.60;;;2.70;;
5616;SDS011;2830;50.656;7.568;2022-10-16T10:19:42;11.77;;;2.63;;
5616;SDS011;2830;50.656;7.568;2022-10-16T10:30:35;13.93;;;3.03;;
5616;SDS011;2830;50.656;7.568;2022-10-16T10:39:05;12.93;;;1.60;;
5616;SDS011;2830;50.656;7.568;2022-10-16T10:44:16;9.47;;;1.00;;
5616;SDS011;2830;50.656;7.568;2022-10-16T10:55:27;12.07;;;2.70;;
5616;SDS011;2830;50.656;7.568;2022-10-16T11:01:04;12.00;;;2.50;;
5616;SDS011;2830;50.656;7.568;2022-10-16T11:12:01;10.40;;;1.50;;
5616;SDS011;2830;50.656;7.568;2022-10-16T11:17:30;9.60;;;1.05;;
5616;SDS011;2830;50.656;7.568;2022-10-16T11:20:11;9.80;;;0.80;;
5616;SDS011;2830;50.656;7.568;2022-10-16T11:22:44;10.20;;;0.80;;
5616;SDS011;2830;50.656;7.568;2022-10-16T11:25:18;11.03;;;0.90;;
5616;SDS011;2830;50.656;7.568;2022-10-16T11:27:59;12.43;;;2.53;;
5616;SDS011;2830;50.656;7.568;2022-10-16T11:30:47;12.40;;;0.87;;
5616;SDS011;2830;50.656;7.568;2022-10-16T11:35:53;14.77;;;1.30;;
5616;SDS011;2830;50.656;7.568;2022-10-16T11:38:39;10.47;;;0.70;;
5616;SDS011;2830;50.656;7.568;2022-10-16T11:41:20;10.03;;;0.73;;
5616;SDS011;2830;50.656;7.568;2022-10-16T11:43:58;10.50;;;0.70;;
5616;SDS011;2830;50.656;7.568;2022-10-16T11:46:52;9.45;;;0.60;;
5616;SDS011;2830;50.656;7.568;2022-10-16T11:49:55;12.13;;;1.00;;
5616;SDS011;2830;50.656;7.568;2022-10-16T11:57:44;10.30;;;0.90;;
5616;SDS011;2830;50.656;7.568;2022-10-16T12:00:27;9.77;;;0.77;;
5616;SDS011;2830;50.656;7.568;2022-10-16T12:08:45;10.97;;;0.83;;
5616;SDS011;2830;50.656;7.568;2022-10-16T12:17:23;11.23;;;0.97;;
5616;SDS011;2830;50.656;7.568;2022-10-16T12:20:18;9.97;;;0.67;;
5616;SDS011;2830;50.656;7.568;2022-10-16T12:23:03;10.40;;;0.80;;
5616;SDS011;2830;50.656;7.568;2022-10-16T12:25:33;10.70;;;0.77;;
5616;SDS011;2830;50.656;7.568;2022-10-16T12:30:41;10.40;;;0.60;;
5616;SDS011;2830;50.656;7.568;2022-10-16T12:33:21;9.93;;;0.73;;
5616;SDS011;2830;50.656;7.568;2022-10-16T12:35:48;10.63;;;0.60;;
5616;SDS011;2830;50.656;7.568;2022-10-16T12:38:19;9.90;;;0.80;;
5616;SDS011;2830;50.656;7.568;2022-10-16T12:40:55;12.40;;;0.95;;
5616;SDS011;2830;50.656;7.568;2022-10-16T12:48:36;9.60;;;1.00;;
5616;SDS011;2830;50.656;7.568;2022-10-16T12:51:22;9.03;;;0.83;;
5616;SDS011;2830;50.656;7.568;2022-10-16T13:08:29;9.13;;;0.90;;
5616;SDS011;2830;50.656;7.568;2022-10-16T13:11:03;10.23;;;1.07;;
5616;SDS011;2830;50.656;7.568;2022-10-16T13:14:09;10.77;;;1.00;;
5616;SDS011;2830;50.656;7.568;2022-10-16T13:22:19;10.30;;;1.97;;
5616;SDS011;2830;50.656;7.568;2022-10-16T13:27:52;11.00;;;0.80;;
5616;SDS011;2830;50.656;7.568;2022-10-16T13:30:24;11.10;;;1.00;;
5616;SDS011;2830;50.656;7.568;2022-10-16T13:35:57;10.93;;;1.20;;
5616;SDS011;2830;50.656;7.568;2022-10-16T13:38:28;8.50;;;0.90;;
5616;SDS011;2830;50.656;7.568;2022-10-16T13:41:02;10.00;;;1.33;;
5616;SDS011;2830;50.656;7.568;2022-10-16T13:43:32;8.37;;;0.83;;
5616;SDS011;2830;50.656;7.568;2022-10-16T13:46:04;8.67;;;1.37;;
5616;SDS011;2830;50.656;7.568;2022-10-16T13:48:33;9.63;;;0.70;;
5616;SDS011;2830;50.656;7.568;2022-10-16T13:51:01;9.23;;;0.67;;
5616;SDS011;2830;50.656;7.568;2022-10-16T13:53:33;10.17;;;0.80;;
5616;SDS011;2830;50.656;7.568;2022-10-16T13:56:02;8.20;;;0.73;;
5616;SDS011;2830;50.656;7.568;2022-10-16T13:58:30;9.30;;;0.77;;
5616;SDS011;2830;50.656;7.568;2022-10-16T14:01:31;8.57;;;0.70;;
5616;SDS011;2830;50.656;7.568;2022-10-16T14:04:15;10.90;;;0.90;;
5616;SDS011;2830;50.656;7.568;2022-10-16T14:06:46;12.07;;;0.97;;
5616;SDS011;2830;50.656;7.568;2022-10-16T14:09:25;9.30;;;0.70;;
5616;SDS011;2830;50.656;7.568;2022-10-16T14:12:02;11.20;;;1.00;;
5616;SDS011;2830;50.656;7.568;2022-10-16T14:14:35;9.73;;;0.80;;
5616;SDS011;2830;50.656;7.568;2022-10-16T14:19:50;8.68;;;0.82;;
5616;SDS011;2830;50.656;7.568;2022-10-16T14:22:30;10.33;;;1.10;;
5616;SDS011;2830;50.656;7.568;2022-10-16T14:25:23;8.30;;;0.70;;
5616;SDS011;2830;50.656;7.568;2022-10-16T14:30:33;11.17;;;0.80;;
5616;SDS011;2830;50.656;7.568;2022-10-16T14:33:06;9.10;;;1.03;;
5616;SDS011;2830;50.656;7.568;2022-10-16T14:35:46;8.57;;;0.90;;
5616;SDS011;2830;50.656;7.568;2022-10-16T14:38:24;8.40;;;0.70;;
5616;SDS011;2830;50.656;7.568;2022-10-16T14:40:52;8.63;;;0.90;;
5616;SDS011;2830;50.656;7.568;2022-10-16T14:43:22;8.35;;;0.80;;
5616;SDS011;2830;50.656;7.568;2022-10-16T14:45:55;8.20;;;0.80;;
5616;SDS011;2830;50.656;7.568;2022-10-16T14:48:23;8.40;;;0.80;;
5616;SDS011;2830;50.656;7.568;2022-10-16T14:50:50;9.03;;;0.80;;
5616;SDS011;2830;50.656;7.568;2022-10-16T14:53:17;9.50;;;1.20;;
5616;SDS011;2830;50.656;7.568;2022-10-16T14:55:44;11.33;;;1.17;;
5616;SDS011;2830;50.656;7.568;2022-10-16T14:58:18;11.70;;;1.13;;
5616;SDS011;2830;50.656;7.568;2022-10-16T15:00:50;8.70;;;0.80;;
5616;SDS011;2830;50.656;7.568;2022-10-16T15:03:17;8.45;;;0.80;;
5616;SDS011;2830;50.656;7.568;2022-10-16T15:05:43;8.87;;;0.90;;
5616;SDS011;2830;50.656;7.568;2022-10-16T15:08:10;8.77;;;0.80;;
5616;SDS011;2830;50.656;7.568;2022-10-16T15:10:40;7.70;;;0.67;;
5616;SDS011;2830;50.656;7.568;2022-10-16T15:13:11;8.20;;;0.80;;
5616;SDS011;2830;50.656;7.568;2022-10-16T15:15:43;7.88;;;0.63;;
5616;SDS011;2830;50.656;7.568;2022-10-16T15:18:11;11.50;;;0.70;;
5616;SDS011;2830;50.656;7.568;2022-10-16T15:20:40;8.00;;;0.60;;
5616;SDS011;2830;50.656;7.568;2022-10-16T15:23:20;8.32;;;0.80;;
5616;SDS011;2830;50.656;7.568;2022-10-16T15:28:16;8.90;;;1.00;;
5616;SDS011;2830;50.656;7.568;2022-10-16T15:30:45;7.78;;;0.70;;
5616;SDS011;2830;50.656;7.568;2022-10-16T15:33:16;8.43;;;0.93;;
5616;SDS011;2830;50.656;7.568;2022-10-16T15:35:47;11.20;;;0.83;;
5616;SDS011;2830;50.656;7.568;2022-10-16T15:38:15;23.15;;;1.52;;
5616;SDS011;2830;50.656;7.568;2022-10-16T15:40:42;11.53;;;0.97;;
5616;SDS011;2830;50.656;7.568;2022-10-16T15:43:09;7.60;;;0.83;;
5616;SDS011;2830;50.656;7.568;2022-10-16T15:45:40;9.13;;;0.75;;
5616;SDS011;2830;50.656;7.568;2022-10-16T15:48:10;8.77;;;0.87;;
5616;SDS011;2830;50.656;7.568;2022-10-16T15:50:39;8.00;;;1.47;;
5616;SDS011;2830;50.656;7.568;2022-10-16T15:53:06;8.70;;;0.90;;
5616;SDS011;2830;50.656;7.568;2022-10-16T15:55:33;7.50;;;0.80;;
5616;SDS011;2830;50.656;7.568;2022-10-16T15:58:02;12.33;;;1.40;;
5616;SDS011;2830;50.656;7.568;2022-10-16T16:00:29;7.93;;;0.90;;
5616;SDS011;2830;50.656;7.568;2022-10-16T16:02:55;8.37;;;1.00;;
5616;SDS011;2830;50.656;7.568;2022-10-16T16:05:25;7.95;;;1.00;;
5616;SDS011;2830;50.656;7.568;2022-10-16T16:07:53;8.30;;;1.23;;
5616;SDS011;2830;50.656;7.568;2022-10-16T16:10:20;8.93;;;1.10;;
5616;SDS011;2830;50.656;7.568;2022-10-16T16:12:47;8.82;;;1.17;;
5616;SDS011;2830;50.656;7.568;2022-10-16T16:15:19;8.23;;;1.00;;
5616;SDS011;2830;50.656;7.568;2022-10-16T16:17:47;7.80;;;1.10;;
5616;SDS011;2830;50.656;7.568;2022-10-16T16:20:14;11.63;;;2.17;;
5616;SDS011;2830;50.656;7.568;2022-10-16T16:22:41;8.73;;;1.05;;
5616;SDS011;2830;50.656;7.568;2022-10-16T16:25:08;8.13;;;0.90;;
5616;SDS011;2830;50.656;7.568;2022-10-16T16:27:34;8.53;;;1.00;;
5616;SDS011;2830;50.656;7.568;2022-10-16T16:30:05;8.10;;;1.10;;
5616;SDS011;2830;50.656;7.568;2022-10-16T16:32:33;8.53;;;1.20;;
5616;SDS011;2830;50.656;7.568;2022-10-16T16:35:01;10.93;;;3.10;;
5616;SDS011;2830;50.656;7.568;2022-10-16T16:37:28;12.20;;;3.03;;
5616;SDS011;2830;50.656;7.568;2022-10-16T16:39:56;11.50;;;2.77;;
5616;SDS011;2830;50.656;7.568;2022-10-16T16:42:25;11.00;;;2.70;;
5616;SDS011;2830;50.656;7.568;2022-10-16T16:44:52;9.93;;;2.67;;
5616;SDS011;2830;50.656;7.568;2022-10-16T16:47:20;9.23;;;1.90;;
5616;SDS011;2830;50.656;7.568;2022-10-16T16:49:46;9.83;;;1.57;;
5616;SDS011;2830;50.656;7.568;2022-10-16T16:52:13;9.87;;;2.00;;
5616;SDS011;2830;50.656;7.568;2022-10-16T16:54:40;14.30;;;2.57;;
5616;SDS011;2830;50.656;7.568;2022-10-16T16:57:07;12.33;;;1.60;;
5616;SDS011;2830;50.656;7.568;2022-10-16T16:59:34;12.67;;;1.87;;
5616;SDS011;2830;50.656;7.568;2022-10-16T17:02:00;11.20;;;2.80;;
5616;SDS011;2830;50.656;7.568;2022-10-16T17:04:27;12.13;;;1.97;;
5616;SDS011;2830;50.656;7.568;2022-10-16T17:06:54;12.60;;;2.40;;
5616;SDS011;2830;50.656;7.568;2022-10-16T17:09:21;10.80;;;2.50;;
5616;SDS011;2830;50.656;7.568;2022-10-16T17:11:48;11.27;;;2.07;;
5616;SDS011;2830;50.656;7.568;2022-10-16T17:14:15;10.73;;;2.20;;
5616;SDS011;2830;50.656;7.568;2022-10-16T17:16:41;12.47;;;3.13;;
5616;SDS011;2830;50.656;7.568;2022-10-16T17:19:12;14.53;;;1.73;;
5616;SDS011;2830;50.656;7.568;2022-10-16T17:21:43;19.20;;;2.60;;
5616;SDS011;2830;50.656;7.568;2022-10-16T17:24:10;12.20;;;1.40;;
5616;SDS011;2830;50.656;7.568;2022-10-16T17:26:37;9.90;;;1.63;;
5616;SDS011;2830;50.656;7.568;2022-10-16T17:29:06;13.97;;;1.97;;
5616;SDS011;2830;50.656;7.568;2022-10-16T17:31:36;9.70;;;1.70;;
5616;SDS011;2830;50.656;7.568;2022-10-16T17:34:04;13.37;;;1.90;;
5616;SDS011;2830;50.656;7.568;2022-10-16T17:36:33;12.83;;;1.80;;
5616;SDS011;2830;50.656;7.568;2022-10-16T17:39:03;15.47;;;2.00;;
5616;SDS011;2830;50.656;7.568;2022-10-16T17:41:34;12.13;;;1.90;;
5616;SDS011;2830;50.656;7.568;2022-10-16T17:44:01;16.70;;;2.70;;
5616;SDS011;2830;50.656;7.568;2022-10-16T17:46:29;15.83;;;1.60;;
5616;SDS011;2830;50.656;7.568;2022-10-16T17:48:56;13.03;;;1.87;;
5616;SDS011;2830;50.656;7.568;2022-10-16T17:51:24;12.70;;;2.93;;